sensor_id;sensor_type;location;lat;lon;timestamp;pressure;altitude;pressure_sealevel;temperature;humidity
43488;BME280;29078;41.932;25.554;2023-05-12T00:00:13;100017.00;;;12.81;54.43
43488;BME280;29078;41.932;25.554;2023-05-12T00:02:39;100018.00;;;12.80;54.33
43488;BME280;29078;41.932;25.554;2023-05-12T00:05:04;100019.19;;;12.78;55.18
43488;BME280;29078;41.932;25.554;2023-05-12T00:07:29;100015.72;;;12.77;55.23
43488;BME280;29078;41.932;25.554;2023-05-12T00:09:55;100014.34;;;12.81;53.61
43488;BME280;29078;41.932;25.554;2023-05-12T00:12:20;100013.53;;;12.81;54.76
43488;BME280;29078;41.932;25.554;2023-05-12T00:14:45;100016.25;;;12.72;53.78
43488;BME280;29078;41.932;25.554;2023-05-12T00:17:10;100012.34;;;12.68;54.83
43488;BME280;29078;41.932;25.554;2023-05-12T00:19:37;100011.16;;;12.71;53.97
43488;BME280;29078;41.932;25.554;2023-05-12T00:22:05;100013.81;;;12.71;54.76
43488;BME280;29078;41.932;25.554;2023-05-12T00:24:30;100011.97;;;12.71;54.83
43488;BME280;29078;41.932;25.554;2023-05-12T00:26:56;100020.63;;;12.65;54.90
43488;BME280;29078;41.932;25.554;2023-05-12T00:29:21;100024.28;;;12.64;55.03
43488;BME280;29078;41.932;25.554;2023-05-12T00:31:46;100021.66;;;12.64;54.14
43488;BME280;29078;41.932;25.554;2023-05-12T00:34:11;100021.31;;;12.59;54.59
43488;BME280;29078;41.932;25.554;2023-05-12T00:36:37;100021.41;;;12.51;55.42
43488;BME280;29078;41.932;25.554;2023-05-12T00:39:02;100019.56;;;12.52;54.00
43488;BME280;29078;41.932;25.554;2023-05-12T00:41:28;100017.63;;;12.46;54.57
43488;BME280;29078;41.932;25.554;2023-05-12T00:43:53;100019.81;;;12.42;54.32
43488;BME280;29078;41.932;25.554;2023-05-12T00:46:19;100015.06;;;12.37;55.22
43488;BME280;29078;41.932;25.554;2023-05-12T00:48:44;100012.22;;;12.39;54.71
43488;BME280;29078;41.932;25.554;2023-05-12T00:51:10;100018.34;;;12.39;54.76
43488;BME280;29078;41.932;25.554;2023-05-12T00:53:36;100015.34;;;12.43;54.92
43488;BME280;29078;41.932;25.554;2023-05-12T00:56:02;100009.66;;;12.31;54.78
43488;BME280;29078;41.932;25.554;2023-05-12T00:58:27;100018.59;;;12.30;54.69
43488;BME280;29078;41.932;25.554;2023-05-12T01:00:53;100014.47;;;12.27;55.28
43488;BME280;29078;41.932;25.554;2023-05-12T01:03:18;100008.66;;;12.32;54.57
43488;BME280;29078;41.932;25.554;2023-05-12T01:05:53;100018.72;;;12.36;54.33
43488;BME280;29078;41.932;25.554;2023-05-12T01:08:20;100023.53;;;12.33;55.31
43488;BME280;29078;41.932;25.554;2023-05-12T01:10:47;100023.34;;;12.34;54.90
43488;BME280;29078;41.932;25.554;2023-05-12T01:13:12;100019.72;;;12.35;54.57
43488;BME280;29078;41.932;25.554;2023-05-12T01:15:39;100013.78;;;12.33;53.95
43488;BME280;29078;41.932;25.554;2023-05-12T01:18:06;100013.59;;;12.35;54.52
43488;BME280;29078;41.932;25.554;2023-05-12T01:20:34;100008.94;;;12.37;54.47
43488;BME280;29078;41.932;25.554;2023-05-12T01:23:00;100009.66;;;12.31;55.00
43488;BME280;29078;41.932;25.554;2023-05-12T01:25:25;100004.34;;;12.31;53.90
43488;BME280;29078;41.932;25.554;2023-05-12T01:27:52;100013.19;;;12.23;54.28
43488;BME280;29078;41.932;25.554;2023-05-12T01:30:18;100011.53;;;12.22;54.87
43488;BME280;29078;41.932;25.554;2023-05-12T01:32:44;100018.31;;;12.25;54.83
43488;BME280;29078;41.932;25.554;2023-05-12T01:35:09;100004.88;;;12.26;54.96
43488;BME280;29078;41.932;25.554;2023-05-12T01:37:35;100006.72;;;12.26;55.23
43488;BME280;29078;41.932;25.554;2023-05-12T01:40:00;100012.00;;;12.26;54.68
43488;BME280;29078;41.932;25.554;2023-05-12T01:42:25;100007.91;;;12.23;55.31
43488;BME280;29078;41.932;25.554;2023-05-12T01:44:51;100011.72;;;12.21;55.18
43488;BME280;29078;41.932;25.554;2023-05-12T01:47:17;100012.06;;;12.18;55.34
43488;BME280;29078;41.932;25.554;2023-05-12T01:49:42;100012.06;;;12.18;54.84
43488;BME280;29078;41.932;25.554;2023-05-12T01:52:08;100011.94;;;12.11;55.12
43488;BME280;29078;41.932;25.554;2023-05-12T01:54:33;100016.06;;;12.14;55.07
43488;BME280;29078;41.932;25.554;2023-05-12T01:56:58;100014.44;;;12.13;55.72
43488;BME280;29078;41.932;25.554;2023-05-12T01:59:24;100022.00;;;12.16;54.86
43488;BME280;29078;41.932;25.554;2023-05-12T02:01:49;100022.53;;;12.11;55.19
43488;BME280;29078;41.932;25.554;2023-05-12T02:04:14;100015.44;;;12.12;54.98
43488;BME280;29078;41.932;25.554;2023-05-12T02:06:39;100018.72;;;12.14;53.91
43488;BME280;29078;41.932;25.554;2023-05-12T02:09:05;100012.00;;;12.03;55.15
43488;BME280;29078;41.932;25.554;2023-05-12T02:11:30;100010.53;;;12.00;54.54
43488;BME280;29078;41.932;25.554;2023-05-12T02:13:55;100010.91;;;11.97;55.20
43488;BME280;29078;41.932;25.554;2023-05-12T02:16:21;100014.53;;;11.96;54.84
43488;BME280;29078;41.932;25.554;2023-05-12T02:18:46;100014.53;;;11.96;55.45
43488;BME280;29078;41.932;25.554;2023-05-12T02:21:11;100016.53;;;11.94;55.15
43488;BME280;29078;41.932;25.554;2023-05-12T02:23:37;100007.78;;;11.94;55.29
43488;BME280;29078;41.932;25.554;2023-05-12T02:26:02;100016.88;;;11.91;56.16
43488;BME280;29078;41.932;25.554;2023-05-12T02:28:27;100012.72;;;11.89;56.04
43488;BME280;29078;41.932;25.554;2023-05-12T02:30:52;100018.19;;;11.87;54.86
43488;BME280;29078;41.932;25.554;2023-05-12T02:33:21;100012.25;;;11.85;55.64
43488;BME280;29078;41.932;25.554;2023-05-12T02:35:50;100018.38;;;11.86;55.76
43488;BME280;29078;41.932;25.554;2023-05-12T02:38:16;100014.56;;;11.88;55.46
43488;BME280;29078;41.932;25.554;2023-05-12T02:40:41;100022.19;;;11.91;55.08
43488;BME280;29078;41.932;25.554;2023-05-12T02:43:06;100023.00;;;11.92;55.58
43488;BME280;29078;41.932;25.554;2023-05-12T02:45:31;100022.34;;;11.90;54.75
43488;BME280;29078;41.932;25.554;2023-05-12T02:47:57;100019.72;;;11.90;55.59
43488;BME280;29078;41.932;25.554;2023-05-12T02:50:22;100023.19;;;11.90;55.71
43488;BME280;29078;41.932;25.554;2023-05-12T02:52:48;100016.88;;;11.91;56.32
43488;BME280;29078;41.932;25.554;2023-05-12T02:55:13;100026.28;;;11.94;55.41
43488;BME280;29078;41.932;25.554;2023-05-12T02:57:38;100024.47;;;11.94;55.40
43488;BME280;29078;41.932;25.554;2023-05-12T03:00:04;100032.59;;;11.93;55.35
43488;BME280;29078;41.932;25.554;2023-05-12T03:02:30;100029.28;;;11.91;55.36
43488;BME280;29078;41.932;25.554;2023-05-12T03:04:55;100026.13;;;11.87;55.98
43488;BME280;29078;41.932;25.554;2023-05-12T03:07:21;100040.06;;;11.89;55.39
43488;BME280;29078;41.932;25.554;2023-05-12T03:09:46;100033.06;;;11.88;56.15
43488;BME280;29078;41.932;25.554;2023-05-12T03:12:12;100030.44;;;11.88;55.48
43488;BME280;29078;41.932;25.554;2023-05-12T03:14:37;100038.38;;;11.88;55.17
43488;BME280;29078;41.932;25.554;2023-05-12T03:17:02;100035.94;;;11.78;56.11
43488;BME280;29078;41.932;25.554;2023-05-12T03:19:28;100045.38;;;11.73;56.30
43488;BME280;29078;41.932;25.554;2023-05-12T03:21:53;100046.53;;;11.70;55.37
43488;BME280;29078;41.932;25.554;2023-05-12T03:24:19;100043.72;;;11.72;55.69
43488;BME280;29078;41.932;25.554;2023-05-12T03:26:44;100040.06;;;11.73;56.07
43488;BME280;29078;41.932;25.554;2023-05-12T03:29:09;100039.44;;;11.71;56.10
43488;BME280;29078;41.932;25.554;2023-05-12T03:31:34;100038.25;;;11.73;55.68
43488;BME280;29078;41.932;25.554;2023-05-12T03:34:00;100042.06;;;11.79;54.96
43488;BME280;29078;41.932;25.554;2023-05-12T03:36:25;100048.19;;;11.71;56.03
43488;BME280;29078;41.932;25.554;2023-05-12T03:38:51;100041.06;;;11.72;55.66
43488;BME280;29078;41.932;25.554;2023-05-12T03:41:16;100051.47;;;11.73;55.58
43488;BME280;29078;41.932;25.554;2023-05-12T03:43:41;100051.00;;;11.70;55.50
43488;BME280;29078;41.932;25.554;2023-05-12T03:46:06;100051.66;;;11.72;56.38
43488;BME280;29078;41.932;25.554;2023-05-12T03:48:32;100061.56;;;11.78;55.92
43488;BME280;29078;41.932;25.554;2023-05-12T03:50:57;100056.59;;;11.83;55.78
43488;BME280;29078;41.932;25.554;2023-05-12T03:53:22;100060.88;;;11.84;55.40
43488;BME280;29078;41.932;25.554;2023-05-12T03:55:47;100069.50;;;11.78;55.81
43488;BME280;29078;41.932;25.554;2023-05-12T03:58:13;100070.81;;;11.74;55.73
43488;BME280;29078;41.932;25.554;2023-05-12T04:00:38;100068.34;;;11.72;57.09
43488;BME280;29078;41.932;25.554;2023-05-12T04:03:03;100068.84;;;11.76;56.85
43488;BME280;29078;41.932;25.554;2023-05-12T04:05:29;100070.16;;;11.72;55.71
43488;BME280;29078;41.932;25.554;2023-05-12T04:07:54;100070.16;;;11.72;55.92
43488;BME280;29078;41.932;25.554;2023-05-12T04:10:19;100079.09;;;11.79;56.64
43488;BME280;29078;41.932;25.554;2023-05-12T04:12:44;100072.81;;;11.80;56.87
43488;BME280;29078;41.932;25.554;2023-05-12T04:15:10;100072.81;;;11.80;56.11
43488;BME280;29078;41.932;25.554;2023-05-12T04:17:35;100073.28;;;11.84;56.04
43488;BME280;29078;41.932;25.554;2023-05-12T04:20:00;100077.91;;;11.90;55.32
43488;BME280;29078;41.932;25.554;2023-05-12T04:22:26;100075.75;;;11.93;56.48
43488;BME280;29078;41.932;25.554;2023-05-12T04:24:51;100070.28;;;11.95;56.96
43488;BME280;29078;41.932;25.554;2023-05-12T04:27:16;100077.22;;;11.96;56.98
43488;BME280;29078;41.932;25.554;2023-05-12T04:29:41;100079.34;;;12.00;56.17
43488;BME280;29078;41.932;25.554;2023-05-12T04:32:07;100080.16;;;12.01;56.44
43488;BME280;29078;41.932;25.554;2023-05-12T04:34:32;100076.66;;;12.08;55.31
43488;BME280;29078;41.932;25.554;2023-05-12T04:36:58;100074.31;;;12.14;57.01
43488;BME280;29078;41.932;25.554;2023-05-12T04:39:23;100073.13;;;12.16;56.89
43488;BME280;29078;41.932;25.554;2023-05-12T04:41:48;100081.31;;;12.29;55.81
43488;BME280;29078;41.932;25.554;2023-05-12T04:44:14;100075.50;;;12.34;55.10
43488;BME280;29078;41.932;25.554;2023-05-12T04:46:39;100076.31;;;12.34;55.96
43488;BME280;29078;41.932;25.554;2023-05-12T04:49:05;100071.84;;;12.35;55.54
43488;BME280;29078;41.932;25.554;2023-05-12T04:51:30;100082.03;;;12.46;55.67
43488;BME280;29078;41.932;25.554;2023-05-12T04:53:56;100080.31;;;12.53;56.18
43488;BME280;29078;41.932;25.554;2023-05-12T04:56:21;100088.19;;;12.61;55.48
43488;BME280;29078;41.932;25.554;2023-05-12T04:58:46;100079.94;;;12.64;55.35
43488;BME280;29078;41.932;25.554;2023-05-12T05:01:12;100083.50;;;12.71;54.99
43488;BME280;29078;41.932;25.554;2023-05-12T05:03:38;100084.78;;;12.76;54.80
43488;BME280;29078;41.932;25.554;2023-05-12T05:06:03;100084.63;;;12.77;54.29
43488;BME280;29078;41.932;25.554;2023-05-12T05:08:28;100078.78;;;12.82;54.76
43488;BME280;29078;41.932;25.554;2023-05-12T05:10:54;100084.66;;;12.92;54.03
43488;BME280;29078;41.932;25.554;2023-05-12T05:13:19;100081.28;;;12.98;54.00
43488;BME280;29078;41.932;25.554;2023-05-12T05:15:48;100082.19;;;13.05;54.10
43488;BME280;29078;41.932;25.554;2023-05-12T05:18:13;100072.69;;;13.11;54.01
43488;BME280;29078;41.932;25.554;2023-05-12T05:20:39;100072.88;;;13.09;54.44
43488;BME280;29078;41.932;25.554;2023-05-12T05:23:04;100074.53;;;13.10;54.19
43488;BME280;29078;41.932;25.554;2023-05-12T05:25:29;100080.94;;;13.16;54.43
43488;BME280;29078;41.932;25.554;2023-05-12T05:27:55;100080.69;;;13.25;53.54
43488;BME280;29078;41.932;25.554;2023-05-12T05:30:20;100076.03;;;13.27;53.66
43488;BME280;29078;41.932;25.554;2023-05-12T05:32:45;100086.91;;;13.32;54.03
43488;BME280;29078;41.932;25.554;2023-05-12T05:35:10;100083.56;;;13.39;53.24
43488;BME280;29078;41.932;25.554;2023-05-12T05:37:36;100079.72;;;13.41;53.10
43488;BME280;29078;41.932;25.554;2023-05-12T05:40:01;100088.78;;;13.47;53.06
43488;BME280;29078;41.932;25.554;2023-05-12T05:42:26;100085.94;;;13.48;53.06
43488;BME280;29078;41.932;25.554;2023-05-12T05:44:51;100086.41;;;13.52;53.09
43488;BME280;29078;41.932;25.554;2023-05-12T05:47:17;100087.41;;;13.51;53.33
43488;BME280;29078;41.932;25.554;2023-05-12T05:49:42;100086.22;;;13.53;53.12
43488;BME280;29078;41.932;25.554;2023-05-12T05:52:07;100089.31;;;13.57;53.35
43488;BME280;29078;41.932;25.554;2023-05-12T05:54:33;100090.97;;;13.58;53.09
43488;BME280;29078;41.932;25.554;2023-05-12T05:56:58;100083.72;;;13.66;52.81
43488;BME280;29078;41.932;25.554;2023-05-12T05:59:26;100089.50;;;13.70;52.86
43488;BME280;29078;41.932;25.554;2023-05-12T06:01:51;100091.88;;;13.65;53.37
43488;BME280;29078;41.932;25.554;2023-05-12T06:04:17;100092.16;;;13.70;53.14
43488;BME280;29078;41.932;25.554;2023-05-12T06:06:43;100094.44;;;13.73;53.11
43488;BME280;29078;41.932;25.554;2023-05-12T06:09:08;100080.78;;;13.76;52.82
43488;BME280;29078;41.932;25.554;2023-05-12T06:11:36;100085.19;;;13.84;52.79
43488;BME280;29078;41.932;25.554;2023-05-12T06:14:01;100088.91;;;13.89;52.09
43488;BME280;29078;41.932;25.554;2023-05-12T06:16:26;100083.50;;;13.97;51.71
43488;BME280;29078;41.932;25.554;2023-05-12T06:18:53;100085.97;;;13.99;52.33
43488;BME280;29078;41.932;25.554;2023-05-12T06:21:18;100085.03;;;14.07;52.10
43488;BME280;29078;41.932;25.554;2023-05-12T06:23:43;100084.66;;;14.10;51.99
43488;BME280;29078;41.932;25.554;2023-05-12T06:26:08;100082.09;;;14.16;52.27
43488;BME280;29078;41.932;25.554;2023-05-12T06:28:34;100083.19;;;14.22;52.25
43488;BME280;29078;41.932;25.554;2023-05-12T06:30:59;100090.41;;;14.28;52.15
43488;BME280;29078;41.932;25.554;2023-05-12T06:33:24;100082.06;;;14.31;51.64
43488;BME280;29078;41.932;25.554;2023-05-12T06:35:50;100076.44;;;14.41;51.50
43488;BME280;29078;41.932;25.554;2023-05-12T06:38:15;100081.63;;;14.49;51.38
43488;BME280;29078;41.932;25.554;2023-05-12T06:40:40;100090.50;;;14.56;52.01
43488;BME280;29078;41.932;25.554;2023-05-12T06:43:06;100085.50;;;14.68;51.40
43488;BME280;29078;41.932;25.554;2023-05-12T06:45:31;100083.19;;;14.86;50.67
43488;BME280;29078;41.932;25.554;2023-05-12T06:47:56;100083.38;;;14.84;50.64
43488;BME280;29078;41.932;25.554;2023-05-12T06:50:22;100079.78;;;14.92;50.51
43488;BME280;29078;41.932;25.554;2023-05-12T06:52:47;100083.19;;;14.86;50.76
43488;BME280;29078;41.932;25.554;2023-05-12T06:55:12;100078.16;;;14.91;50.69
43488;BME280;29078;41.932;25.554;2023-05-12T06:57:39;100077.81;;;15.01;50.28
43488;BME280;29078;41.932;25.554;2023-05-12T07:00:05;100072.09;;;15.04;50.19
43488;BME280;29078;41.932;25.554;2023-05-12T07:02:31;100081.53;;;15.06;50.44
43488;BME280;29078;41.932;25.554;2023-05-12T07:04:56;100085.59;;;15.02;50.39
43488;BME280;29078;41.932;25.554;2023-05-12T07:07:22;100080.03;;;14.97;50.80
43488;BME280;29078;41.932;25.554;2023-05-12T07:09:47;100078.56;;;14.94;50.46
43488;BME280;29078;41.932;25.554;2023-05-12T07:12:12;100082.88;;;14.96;50.21
43488;BME280;29078;41.932;25.554;2023-05-12T07:14:37;100073.44;;;14.93;50.23
43488;BME280;29078;41.932;25.554;2023-05-12T07:17:03;100079.47;;;14.80;50.59
43488;BME280;29078;41.932;25.554;2023-05-12T07:19:28;100077.94;;;14.71;50.51
43488;BME280;29078;41.932;25.554;2023-05-12T07:21:53;100077.66;;;14.59;50.90
43488;BME280;29078;41.932;25.554;2023-05-12T07:24:19;100081.75;;;14.62;50.56
43488;BME280;29078;41.932;25.554;2023-05-12T07:26:44;100083.59;;;14.61;50.45
43488;BME280;29078;41.932;25.554;2023-05-12T07:29:09;100080.56;;;14.65;49.85
43488;BME280;29078;41.932;25.554;2023-05-12T07:31:35;100083.47;;;14.70;50.36
43488;BME280;29078;41.932;25.554;2023-05-12T07:34:01;100084.47;;;14.69;49.45
43488;BME280;29078;41.932;25.554;2023-05-12T07:36:26;100083.91;;;14.73;49.49
43488;BME280;29078;41.932;25.554;2023-05-12T07:38:52;100096.22;;;14.81;49.94
43488;BME280;29078;41.932;25.554;2023-05-12T07:41:17;100092.44;;;14.90;49.70
43488;BME280;29078;41.932;25.554;2023-05-12T07:43:42;100092.34;;;15.05;49.70
43488;BME280;29078;41.932;25.554;2023-05-12T07:46:08;100098.19;;;15.21;49.16
43488;BME280;29078;41.932;25.554;2023-05-12T07:48:33;100090.31;;;15.35;49.43
43488;BME280;29078;41.932;25.554;2023-05-12T07:51:03;100091.94;;;15.36;48.85
43488;BME280;29078;41.932;25.554;2023-05-12T07:53:28;100088.28;;;15.37;48.82
43488;BME280;29078;41.932;25.554;2023-05-12T07:55:54;100075.22;;;15.48;48.24
43488;BME280;29078;41.932;25.554;2023-05-12T07:58:19;100081.56;;;15.47;47.85
43488;BME280;29078;41.932;25.554;2023-05-12T08:00:45;100079.34;;;15.51;48.05
43488;BME280;29078;41.932;25.554;2023-05-12T08:03:10;100064.25;;;15.58;48.35
43488;BME280;29078;41.932;25.554;2023-05-12T08:05:35;100080.72;;;15.68;48.28
43488;BME280;29078;41.932;25.554;2023-05-12T08:08:00;100084.84;;;15.77;47.82
43488;BME280;29078;41.932;25.554;2023-05-12T08:10:26;100082.25;;;15.91;46.61
43488;BME280;29078;41.932;25.554;2023-05-12T08:12:53;100081.25;;;16.05;46.89
43488;BME280;29078;41.932;25.554;2023-05-12T08:15:19;100083.97;;;16.18;46.39
43488;BME280;29078;41.932;25.554;2023-05-12T08:17:44;100077.63;;;16.26;46.40
43488;BME280;29078;41.932;25.554;2023-05-12T08:20:10;100078.50;;;16.39;45.56
43488;BME280;29078;41.932;25.554;2023-05-12T08:22:35;100083.63;;;16.47;44.84
43488;BME280;29078;41.932;25.554;2023-05-12T08:25:00;100084.88;;;16.51;45.56
43488;BME280;29078;41.932;25.554;2023-05-12T08:27:26;100084.47;;;16.55;45.42
43488;BME280;29078;41.932;25.554;2023-05-12T08:29:51;100088.56;;;16.50;43.63
43488;BME280;29078;41.932;25.554;2023-05-12T08:32:16;100086.09;;;16.56;44.90
43488;BME280;29078;41.932;25.554;2023-05-12T08:34:42;100078.13;;;16.62;45.17
43488;BME280;29078;41.932;25.554;2023-05-12T08:37:07;100083.03;;;16.59;44.29
43488;BME280;29078;41.932;25.554;2023-05-12T08:39:32;100083.44;;;16.62;45.09
43488;BME280;29078;41.932;25.554;2023-05-12T08:44:27;100083.44;;;16.49;44.91
43488;BME280;29078;41.932;25.554;2023-05-12T08:46:53;100084.66;;;16.40;45.55
43488;BME280;29078;41.932;25.554;2023-05-12T08:49:19;100080.97;;;16.41;45.46
43488;BME280;29078;41.932;25.554;2023-05-12T08:51:45;100088.56;;;16.50;45.08
43488;BME280;29078;41.932;25.554;2023-05-12T08:54:11;100091.03;;;16.52;45.14
43488;BME280;29078;41.932;25.554;2023-05-12T08:56:37;100088.78;;;16.56;45.21
43488;BME280;29078;41.932;25.554;2023-05-12T08:59:03;100083.84;;;16.52;43.41
43488;BME280;29078;41.932;25.554;2023-05-12T09:01:32;100086.72;;;16.58;44.05
43488;BME280;29078;41.932;25.554;2023-05-12T09:03:58;100086.16;;;16.69;44.44
43488;BME280;29078;41.932;25.554;2023-05-12T09:06:23;100084.50;;;16.81;44.20
43488;BME280;29078;41.932;25.554;2023-05-12T09:08:49;100081.22;;;16.72;44.01
43488;BME280;29078;41.932;25.554;2023-05-12T09:11:15;100079.78;;;16.83;44.79
43488;BME280;29078;41.932;25.554;2023-05-12T09:13:44;100082.66;;;17.01;43.19
43488;BME280;29078;41.932;25.554;2023-05-12T09:16:13;100081.41;;;17.04;43.86
43488;BME280;29078;41.932;25.554;2023-05-12T09:18:54;100083.28;;;17.17;44.57
43488;BME280;29078;41.932;25.554;2023-05-12T09:21:19;100088.41;;;17.11;42.75
43488;BME280;29078;41.932;25.554;2023-05-12T09:23:52;100078.16;;;17.15;43.50
43488;BME280;29078;41.932;25.554;2023-05-12T09:26:17;100078.78;;;17.17;43.33
43488;BME280;29078;41.932;25.554;2023-05-12T09:28:42;100082.25;;;17.11;43.10
43488;BME280;29078;41.932;25.554;2023-05-12T09:31:18;100078.78;;;17.10;43.73
43488;BME280;29078;41.932;25.554;2023-05-12T09:33:43;100083.28;;;17.17;43.23
43488;BME280;29078;41.932;25.554;2023-05-12T09:36:09;100079.59;;;17.18;42.72
43488;BME280;29078;41.932;25.554;2023-05-12T09:38:34;100083.28;;;17.10;42.63
43488;BME280;29078;41.932;25.554;2023-05-12T09:41:00;100081.00;;;17.07;43.04
43488;BME280;29078;41.932;25.554;2023-05-12T09:43:25;100080.59;;;17.03;42.25
43488;BME280;29078;41.932;25.554;2023-05-12T09:45:50;100087.16;;;17.07;43.33
43488;BME280;29078;41.932;25.554;2023-05-12T09:48:16;100085.34;;;17.14;43.31
43488;BME280;29078;41.932;25.554;2023-05-12T09:50:48;100085.50;;;17.33;43.61
43488;BME280;29078;41.932;25.554;2023-05-12T09:53:14;100013.72;;;16.98;42.63
43488;BME280;29078;41.932;25.554;2023-05-12T09:55:42;100087.53;;;17.51;43.00
43488;BME280;29078;41.932;25.554;2023-05-12T09:58:08;100082.13;;;17.64;42.56
43488;BME280;29078;41.932;25.554;2023-05-12T10:00:35;100083.94;;;17.83;42.56
43488;BME280;29078;41.932;25.554;2023-05-12T10:03:03;100074.97;;;18.16;41.92
43488;BME280;29078;41.932;25.554;2023-05-12T10:05:31;100080.25;;;18.29;41.21
43488;BME280;29078;41.932;25.554;2023-05-12T10:07:57;100083.72;;;18.29;41.11
43488;BME280;29078;41.932;25.554;2023-05-12T10:10:24;100078.03;;;18.19;39.19
43488;BME280;29078;41.932;25.554;2023-05-12T10:12:50;100079.28;;;18.17;40.70
43488;BME280;29078;41.932;25.554;2023-05-12T10:15:16;100082.13;;;18.60;40.69
43488;BME280;29078;41.932;25.554;2023-05-12T10:17:41;100077.91;;;19.20;40.11
43488;BME280;29078;41.932;25.554;2023-05-12T10:20:08;100075.03;;;19.65;37.46
43488;BME280;29078;41.932;25.554;2023-05-12T10:22:33;100077.00;;;19.51;38.10
43488;BME280;29078;41.932;25.554;2023-05-12T10:24:59;100078.50;;;19.22;39.39
43488;BME280;29078;41.932;25.554;2023-05-12T10:27:25;100083.34;;;18.89;38.60
43488;BME280;29078;41.932;25.554;2023-05-12T10:29:51;100091.38;;;18.64;39.69
43488;BME280;29078;41.932;25.554;2023-05-12T10:32:16;100079.91;;;18.50;39.55
43488;BME280;29078;41.932;25.554;2023-05-12T10:34:41;100071.69;;;18.45;39.60
43488;BME280;29078;41.932;25.554;2023-05-12T10:37:09;100059.06;;;18.65;40.45
43488;BME280;29078;41.932;25.554;2023-05-12T10:39:45;100055.38;;;19.10;38.65
43488;BME280;29078;41.932;25.554;2023-05-12T10:42:11;100051.94;;;19.64;40.41
43488;BME280;29078;41.932;25.554;2023-05-12T10:44:46;100035.44;;;19.97;39.33
43488;BME280;29078;41.932;25.554;2023-05-12T10:47:13;100038.72;;;19.99;38.13
43488;BME280;29078;41.932;25.554;2023-05-12T10:49:39;100048.44;;;19.82;38.18
43488;BME280;29078;41.932;25.554;2023-05-12T10:52:05;100048.97;;;19.54;37.59
43488;BME280;29078;41.932;25.554;2023-05-12T10:54:36;100046.91;;;19.13;38.25
43488;BME280;29078;41.932;25.554;2023-05-12T10:57:02;100047.72;;;19.13;39.34
43488;BME280;29078;41.932;25.554;2023-05-12T10:59:27;100038.63;;;19.39;39.49
43488;BME280;29078;41.932;25.554;2023-05-12T11:01:56;100034.50;;;19.91;39.20
43488;BME280;29078;41.932;25.554;2023-05-12T11:04:22;100036.53;;;20.38;38.28
43488;BME280;29078;41.932;25.554;2023-05-12T11:06:56;100025.88;;;20.61;37.46
43488;BME280;29078;41.932;25.554;2023-05-12T11:09:22;100033.34;;;20.71;36.96
43488;BME280;29078;41.932;25.554;2023-05-12T11:11:48;100029.13;;;20.51;38.21
43488;BME280;29078;41.932;25.554;2023-05-12T11:14:13;100027.75;;;20.19;37.80
43488;BME280;29078;41.932;25.554;2023-05-12T11:16:42;100020.72;;;19.88;37.93
43488;BME280;29078;41.932;25.554;2023-05-12T11:19:08;100022.59;;;19.87;37.07
43488;BME280;29078;41.932;25.554;2023-05-12T11:21:33;100025.06;;;20.19;38.25
43488;BME280;29078;41.932;25.554;2023-05-12T11:23:59;100017.13;;;20.24;38.14
43488;BME280;29078;41.932;25.554;2023-05-12T11:26:25;100015.16;;;20.19;38.82
43488;BME280;29078;41.932;25.554;2023-05-12T11:28:51;100019.03;;;20.05;38.52
43488;BME280;29078;41.932;25.554;2023-05-12T11:31:20;100012.72;;;19.99;37.82
43488;BME280;29078;41.932;25.554;2023-05-12T11:33:46;100010.13;;;20.11;37.71
43488;BME280;29078;41.932;25.554;2023-05-12T11:36:11;100012.78;;;20.53;36.07
43488;BME280;29078;41.932;25.554;2023-05-12T11:38:37;100004.19;;;20.98;35.63
43488;BME280;29078;41.932;25.554;2023-05-12T11:41:02;100002.09;;;21.00;36.20
43488;BME280;29078;41.932;25.554;2023-05-12T11:43:27;99998.13;;;20.90;36.34
43488;BME280;29078;41.932;25.554;2023-05-12T11:45:53;100009.06;;;20.54;35.97
43488;BME280;29078;41.932;25.554;2023-05-12T11:48:30;100011.69;;;20.30;37.28
43488;BME280;29078;41.932;25.554;2023-05-12T11:50:56;100009.59;;;20.03;37.77
43488;BME280;29078;41.932;25.554;2023-05-12T11:53:21;100005.19;;;19.78;36.08
43488;BME280;29078;41.932;25.554;2023-05-12T11:55:54;100005.19;;;19.78;36.25
43488;BME280;29078;41.932;25.554;2023-05-12T11:58:21;100000.19;;;19.82;37.36
43488;BME280;29078;41.932;25.554;2023-05-12T12:00:47;100001.03;;;20.12;37.79
43488;BME280;29078;41.932;25.554;2023-05-12T12:03:15;99999.63;;;20.51;34.31
43488;BME280;29078;41.932;25.554;2023-05-12T12:05:41;99995.09;;;20.87;35.88
43488;BME280;29078;41.932;25.554;2023-05-12T12:08:08;99993.91;;;21.30;33.60
43488;BME280;29078;41.932;25.554;2023-05-12T12:10:33;99997.75;;;21.74;35.08
43488;BME280;29078;41.932;25.554;2023-05-12T12:12:59;99994.31;;;22.18;33.72
43488;BME280;29078;41.932;25.554;2023-05-12T12:15:25;99992.72;;;22.51;33.48
43488;BME280;29078;41.932;25.554;2023-05-12T12:17:50;99998.59;;;22.31;34.02
43488;BME280;29078;41.932;25.554;2023-05-12T12:20:15;99994.34;;;21.78;31.45
43488;BME280;29078;41.932;25.554;2023-05-12T12:22:42;99998.78;;;21.44;34.79
43488;BME280;29078;41.932;25.554;2023-05-12T12:25:07;99996.47;;;21.13;35.89
43488;BME280;29078;41.932;25.554;2023-05-12T12:27:33;99994.50;;;20.85;36.51
43488;BME280;29078;41.932;25.554;2023-05-12T12:29:58;99989.00;;;20.45;36.38
43488;BME280;29078;41.932;25.554;2023-05-12T12:32:23;99986.94;;;20.28;35.46
43488;BME280;29078;41.932;25.554;2023-05-12T12:34:49;99980.25;;;20.73;33.28